KADS/ADS METAR and TAF weather

Enter ICAO airport designator
Station Type Date Time Source
KADS METAR 2020/02/24 07:15 UTC NOAA

KADS 240715Z AUTO 20013G20KT 10SM OVC009 16/14 A2980 RMK AO2 T01580143


Station Type Date Time Source
KADS Decoded METAR 2020/02/24 07:15 UTC NOAA

Dallas / Addison Airport, TX, United States (KADS) 32-58N 096-50W
Feb 24, 2020 - 02:15 AM EST / 2020.02.24 0715 UTC
Wind: from the SSW (200 degrees) at 15 MPH (13 KT) gusting to 23 MPH (20 KT):0
Visibility: 10 mile(s):0
Sky conditions: overcast
Temperature: 60.4 F (15.8 C)
Dew Point: 57.7 F (14.3 C)
Relative Humidity: 90%
Pressure (altimeter): 29.8 in. Hg (1009 hPa)
ob: KADS 240715Z AUTO 20013G20KT 10SM OVC009 16/14 A2980 RMK AO2 T01580143
cycle: 7

Station Type Date Time Source
KADS TAF UTC NOAA

Error!

Example: see airport list